• location
  • image
Airport

AP V2 EN

 

 

Click here to view short presentation ->

Today

Thursday, 27 November 2014

Weather Forecast

Siauliai -2 °C
   

Aviation Weather Forecast

[source: ADDS]
METAR
EYSA 270150Z 15008KT 9000 OVC006 M02/M02 Q1026 R14L/2///95 R14R/2///95 =
TAF
TAF EYSA 270200Z 2703/2712 15006KT 5000 BR OVC006 TEMPO 2703/2706 1500 BKN003 =
SR / SS: 06:22 / 14:08 UTC (EYSA 2014-11-27)

Who's Online

We have 15 guests online

tic logo en